sensor_id;sensor_type;location;lat;lon;timestamp;P1;durP1;ratioP1;P2;durP2;ratioP2
21315;SDS011;10817;55.820;13.030;2023-05-23T00:02:00;8.88;;;4.18;;
21315;SDS011;10817;55.820;13.030;2023-05-23T00:04:32;8.35;;;3.67;;
21315;SDS011;10817;55.820;13.030;2023-05-23T00:07:00;7.70;;;3.60;;
21315;SDS011;10817;55.820;13.030;2023-05-23T00:09:28;6.47;;;3.50;;
21315;SDS011;10817;55.820;13.030;2023-05-23T00:11:55;6.70;;;3.70;;
21315;SDS011;10817;55.820;13.030;2023-05-23T00:14:24;10.40;;;3.60;;
21315;SDS011;10817;55.820;13.030;2023-05-23T00:16:51;6.40;;;3.40;;
21315;SDS011;10817;55.820;13.030;2023-05-23T00:19:19;6.15;;;3.75;;
21315;SDS011;10817;55.820;13.030;2023-05-23T00:21:46;3.92;;;3.13;;
21315;SDS011;10817;55.820;13.030;2023-05-23T00:24:14;6.65;;;3.55;;
21315;SDS011;10817;55.820;13.030;2023-05-23T00:26:42;6.53;;;3.55;;
21315;SDS011;10817;55.820;13.030;2023-05-23T00:29:10;6.75;;;3.42;;
21315;SDS011;10817;55.820;13.030;2023-05-23T00:31:42;6.75;;;3.88;;
21315;SDS011;10817;55.820;13.030;2023-05-23T00:34:10;4.45;;;3.38;;
21315;SDS011;10817;55.820;13.030;2023-05-23T00:36:37;8.57;;;3.70;;
21315;SDS011;10817;55.820;13.030;2023-05-23T00:39:06;6.30;;;3.58;;
21315;SDS011;10817;55.820;13.030;2023-05-23T00:41:33;7.90;;;4.03;;
21315;SDS011;10817;55.820;13.030;2023-05-23T00:44:01;6.40;;;4.45;;
21315;SDS011;10817;55.820;13.030;2023-05-23T00:46:30;8.82;;;3.67;;
21315;SDS011;10817;55.820;13.030;2023-05-23T00:48:59;7.93;;;3.75;;
21315;SDS011;10817;55.820;13.030;2023-05-23T00:51:27;7.55;;;3.60;;
21315;SDS011;10817;55.820;13.030;2023-05-23T00:53:55;4.55;;;3.58;;
21315;SDS011;10817;55.820;13.030;2023-05-23T00:56:24;4.60;;;3.58;;
21315;SDS011;10817;55.820;13.030;2023-05-23T00:58:52;7.72;;;3.80;;
21315;SDS011;10817;55.820;13.030;2023-05-23T01:01:20;11.75;;;4.43;;
21315;SDS011;10817;55.820;13.030;2023-05-23T01:03:48;9.00;;;3.80;;
21315;SDS011;10817;55.820;13.030;2023-05-23T01:06:17;7.15;;;3.80;;
21315;SDS011;10817;55.820;13.030;2023-05-23T01:08:44;10.63;;;4.22;;
21315;SDS011;10817;55.820;13.030;2023-05-23T01:11:13;4.50;;;3.47;;
21315;SDS011;10817;55.820;13.030;2023-05-23T01:13:45;6.57;;;3.40;;
21315;SDS011;10817;55.820;13.030;2023-05-23T01:16:15;6.97;;;3.85;;
21315;SDS011;10817;55.820;13.030;2023-05-23T01:18:44;7.50;;;4.13;;
21315;SDS011;10817;55.820;13.030;2023-05-23T01:21:14;7.22;;;3.53;;
21315;SDS011;10817;55.820;13.030;2023-05-23T01:24:01;7.43;;;3.88;;
21315;SDS011;10817;55.820;13.030;2023-05-23T01:26:30;7.35;;;3.42;;
21315;SDS011;10817;55.820;13.030;2023-05-23T01:29:06;7.22;;;4.07;;
21315;SDS011;10817;55.820;13.030;2023-05-23T01:31:36;6.75;;;3.92;;
21315;SDS011;10817;55.820;13.030;2023-05-23T01:34:03;14.15;;;3.83;;
21315;SDS011;10817;55.820;13.030;2023-05-23T01:36:34;5.25;;;3.05;;
21315;SDS011;10817;55.820;13.030;2023-05-23T01:39:05;5.57;;;3.78;;
21315;SDS011;10817;55.820;13.030;2023-05-23T01:41:33;6.93;;;3.92;;
21315;SDS011;10817;55.820;13.030;2023-05-23T01:44:02;6.07;;;3.17;;
21315;SDS011;10817;55.820;13.030;2023-05-23T01:46:29;4.05;;;3.63;;
21315;SDS011;10817;55.820;13.030;2023-05-23T01:48:57;5.10;;;3.95;;
21315;SDS011;10817;55.820;13.030;2023-05-23T01:51:24;5.05;;;3.58;;
21315;SDS011;10817;55.820;13.030;2023-05-23T01:53:52;7.32;;;3.67;;
21315;SDS011;10817;55.820;13.030;2023-05-23T01:56:20;10.25;;;4.10;;
21315;SDS011;10817;55.820;13.030;2023-05-23T01:58:49;4.32;;;3.35;;
21315;SDS011;10817;55.820;13.030;2023-05-23T02:01:17;8.18;;;4.30;;
21315;SDS011;10817;55.820;13.030;2023-05-23T02:03:44;8.05;;;4.18;;
21315;SDS011;10817;55.820;13.030;2023-05-23T02:06:12;5.90;;;3.40;;
21315;SDS011;10817;55.820;13.030;2023-05-23T02:08:39;6.60;;;3.80;;
21315;SDS011;10817;55.820;13.030;2023-05-23T02:11:07;4.95;;;3.50;;
21315;SDS011;10817;55.820;13.030;2023-05-23T02:13:34;5.35;;;3.25;;
21315;SDS011;10817;55.820;13.030;2023-05-23T02:16:02;5.07;;;3.28;;
21315;SDS011;10817;55.820;13.030;2023-05-23T02:18:31;4.75;;;3.10;;
21315;SDS011;10817;55.820;13.030;2023-05-23T02:20:58;4.75;;;3.10;;
21315;SDS011;10817;55.820;13.030;2023-05-23T02:23:25;5.50;;;3.33;;
21315;SDS011;10817;55.820;13.030;2023-05-23T02:25:52;6.47;;;3.67;;
21315;SDS011;10817;55.820;13.030;2023-05-23T02:28:20;4.95;;;3.53;;
21315;SDS011;10817;55.820;13.030;2023-05-23T02:30:48;4.80;;;3.60;;
21315;SDS011;10817;55.820;13.030;2023-05-23T02:33:15;5.00;;;3.55;;
21315;SDS011;10817;55.820;13.030;2023-05-23T02:35:45;4.95;;;3.08;;
21315;SDS011;10817;55.820;13.030;2023-05-23T02:38:14;8.95;;;3.85;;
21315;SDS011;10817;55.820;13.030;2023-05-23T02:40:43;5.20;;;3.47;;
21315;SDS011;10817;55.820;13.030;2023-05-23T02:43:11;3.97;;;3.30;;
21315;SDS011;10817;55.820;13.030;2023-05-23T02:45:38;4.68;;;3.67;;
21315;SDS011;10817;55.820;13.030;2023-05-23T02:48:05;4.53;;;3.50;;
21315;SDS011;10817;55.820;13.030;2023-05-23T02:50:32;6.88;;;3.20;;
21315;SDS011;10817;55.820;13.030;2023-05-23T02:53:02;4.05;;;3.05;;
21315;SDS011;10817;55.820;13.030;2023-05-23T02:55:30;7.50;;;3.60;;
21315;SDS011;10817;55.820;13.030;2023-05-23T02:57:57;8.70;;;3.38;;
21315;SDS011;10817;55.820;13.030;2023-05-23T03:00:24;6.78;;;3.25;;
21315;SDS011;10817;55.820;13.030;2023-05-23T03:02:54;4.32;;;3.03;;
21315;SDS011;10817;55.820;13.030;2023-05-23T03:05:21;4.97;;;3.15;;
21315;SDS011;10817;55.820;13.030;2023-05-23T03:07:49;4.40;;;2.92;;
21315;SDS011;10817;55.820;13.030;2023-05-23T03:10:17;7.60;;;3.25;;
21315;SDS011;10817;55.820;13.030;2023-05-23T03:12:45;6.80;;;3.40;;
21315;SDS011;10817;55.820;13.030;2023-05-23T03:15:14;5.05;;;3.28;;
21315;SDS011;10817;55.820;13.030;2023-05-23T03:17:42;6.07;;;3.40;;
21315;SDS011;10817;55.820;13.030;2023-05-23T03:20:10;6.68;;;3.00;;
21315;SDS011;10817;55.820;13.030;2023-05-23T03:22:38;3.95;;;2.92;;
21315;SDS011;10817;55.820;13.030;2023-05-23T03:25:07;9.38;;;3.15;;
21315;SDS011;10817;55.820;13.030;2023-05-23T03:27:36;4.38;;;3.28;;
21315;SDS011;10817;55.820;13.030;2023-05-23T03:30:05;4.22;;;3.10;;
21315;SDS011;10817;55.820;13.030;2023-05-23T03:32:34;8.05;;;3.08;;
21315;SDS011;10817;55.820;13.030;2023-05-23T03:35:01;4.50;;;2.95;;
21315;SDS011;10817;55.820;13.030;2023-05-23T03:37:28;7.00;;;3.38;;
21315;SDS011;10817;55.820;13.030;2023-05-23T03:39:56;4.38;;;2.83;;
21315;SDS011;10817;55.820;13.030;2023-05-23T03:42:23;7.18;;;3.40;;
21315;SDS011;10817;55.820;13.030;2023-05-23T03:44:52;8.25;;;3.25;;
21315;SDS011;10817;55.820;13.030;2023-05-23T03:47:21;4.40;;;3.10;;
21315;SDS011;10817;55.820;13.030;2023-05-23T03:49:49;4.75;;;3.13;;
21315;SDS011;10817;55.820;13.030;2023-05-23T03:52:16;3.83;;;3.00;;
21315;SDS011;10817;55.820;13.030;2023-05-23T03:54:44;4.40;;;2.78;;
21315;SDS011;10817;55.820;13.030;2023-05-23T03:57:11;5.45;;;2.95;;
21315;SDS011;10817;55.820;13.030;2023-05-23T03:59:38;9.52;;;3.15;;
21315;SDS011;10817;55.820;13.030;2023-05-23T04:02:10;5.40;;;3.28;;
21315;SDS011;10817;55.820;13.030;2023-05-23T04:04:37;4.72;;;2.90;;
21315;SDS011;10817;55.820;13.030;2023-05-23T04:07:05;4.82;;;2.90;;
21315;SDS011;10817;55.820;13.030;2023-05-23T04:09:33;4.75;;;3.05;;
21315;SDS011;10817;55.820;13.030;2023-05-23T04:12:02;8.70;;;3.42;;
21315;SDS011;10817;55.820;13.030;2023-05-23T04:14:30;4.03;;;2.97;;
21315;SDS011;10817;55.820;13.030;2023-05-23T04:16:58;3.63;;;2.60;;
21315;SDS011;10817;55.820;13.030;2023-05-23T04:19:29;4.53;;;3.10;;
21315;SDS011;10817;55.820;13.030;2023-05-23T04:21:56;7.18;;;3.25;;
21315;SDS011;10817;55.820;13.030;2023-05-23T04:24:24;6.03;;;2.97;;
21315;SDS011;10817;55.820;13.030;2023-05-23T04:26:51;11.45;;;3.30;;
21315;SDS011;10817;55.820;13.030;2023-05-23T04:29:20;9.90;;;3.17;;
21315;SDS011;10817;55.820;13.030;2023-05-23T04:31:49;3.88;;;2.97;;
21315;SDS011;10817;55.820;13.030;2023-05-23T04:34:17;6.60;;;3.20;;
21315;SDS011;10817;55.820;13.030;2023-05-23T04:36:48;5.00;;;2.80;;
21315;SDS011;10817;55.820;13.030;2023-05-23T04:39:15;6.65;;;3.28;;
21315;SDS011;10817;55.820;13.030;2023-05-23T04:42:08;6.95;;;2.92;;
21315;SDS011;10817;55.820;13.030;2023-05-23T04:44:58;6.32;;;3.10;;
21315;SDS011;10817;55.820;13.030;2023-05-23T04:50:31;7.28;;;2.80;;
21315;SDS011;10817;55.820;13.030;2023-05-23T04:53:01;4.65;;;3.28;;
21315;SDS011;10817;55.820;13.030;2023-05-23T04:55:28;5.53;;;2.90;;
21315;SDS011;10817;55.820;13.030;2023-05-23T04:57:56;8.20;;;3.45;;
21315;SDS011;10817;55.820;13.030;2023-05-23T05:00:24;5.07;;;2.90;;
21315;SDS011;10817;55.820;13.030;2023-05-23T05:02:52;4.75;;;3.00;;
21315;SDS011;10817;55.820;13.030;2023-05-23T05:05:22;6.03;;;2.97;;
21315;SDS011;10817;55.820;13.030;2023-05-23T05:07:50;6.15;;;2.97;;
21315;SDS011;10817;55.820;13.030;2023-05-23T05:10:18;4.78;;;2.80;;
21315;SDS011;10817;55.820;13.030;2023-05-23T05:12:45;6.40;;;2.95;;
21315;SDS011;10817;55.820;13.030;2023-05-23T05:15:15;6.57;;;2.97;;
21315;SDS011;10817;55.820;13.030;2023-05-23T05:17:45;5.70;;;3.10;;
21315;SDS011;10817;55.820;13.030;2023-05-23T05:20:15;5.32;;;2.85;;
21315;SDS011;10817;55.820;13.030;2023-05-23T05:22:42;5.25;;;2.83;;
21315;SDS011;10817;55.820;13.030;2023-05-23T05:25:12;7.07;;;2.92;;
21315;SDS011;10817;55.820;13.030;2023-05-23T05:27:40;7.32;;;3.00;;
21315;SDS011;10817;55.820;13.030;2023-05-23T05:30:10;5.68;;;3.20;;
21315;SDS011;10817;55.820;13.030;2023-05-23T05:32:49;4.88;;;3.45;;
21315;SDS011;10817;55.820;13.030;2023-05-23T05:35:16;7.88;;;3.33;;
21315;SDS011;10817;55.820;13.030;2023-05-23T05:37:44;7.03;;;3.63;;
21315;SDS011;10817;55.820;13.030;2023-05-23T05:40:13;8.30;;;3.47;;
21315;SDS011;10817;55.820;13.030;2023-05-23T05:42:41;3.90;;;2.97;;
21315;SDS011;10817;55.820;13.030;2023-05-23T05:45:09;5.85;;;3.30;;
21315;SDS011;10817;55.820;13.030;2023-05-23T05:47:38;5.93;;;3.20;;
21315;SDS011;10817;55.820;13.030;2023-05-23T05:50:06;7.72;;;4.05;;
21315;SDS011;10817;55.820;13.030;2023-05-23T05:52:35;9.30;;;3.70;;
21315;SDS011;10817;55.820;13.030;2023-05-23T05:55:04;7.25;;;3.45;;
21315;SDS011;10817;55.820;13.030;2023-05-23T05:57:33;8.00;;;4.10;;
21315;SDS011;10817;55.820;13.030;2023-05-23T06:00:04;7.38;;;3.78;;
21315;SDS011;10817;55.820;13.030;2023-05-23T06:02:43;9.93;;;4.20;;
21315;SDS011;10817;55.820;13.030;2023-05-23T06:05:15;8.02;;;4.13;;
21315;SDS011;10817;55.820;13.030;2023-05-23T06:07:43;9.13;;;3.88;;
21315;SDS011;10817;55.820;13.030;2023-05-23T06:10:10;7.47;;;3.85;;
21315;SDS011;10817;55.820;13.030;2023-05-23T06:12:39;8.13;;;4.25;;
21315;SDS011;10817;55.820;13.030;2023-05-23T06:15:07;6.00;;;4.00;;
21315;SDS011;10817;55.820;13.030;2023-05-23T06:17:36;7.60;;;4.00;;
21315;SDS011;10817;55.820;13.030;2023-05-23T06:20:04;13.85;;;4.40;;
21315;SDS011;10817;55.820;13.030;2023-05-23T06:22:33;7.53;;;4.07;;
21315;SDS011;10817;55.820;13.030;2023-05-23T06:25:01;4.93;;;3.47;;
21315;SDS011;10817;55.820;13.030;2023-05-23T06:27:28;5.22;;;3.70;;
21315;SDS011;10817;55.820;13.030;2023-05-23T06:29:57;5.22;;;3.33;;
21315;SDS011;10817;55.820;13.030;2023-05-23T06:32:24;7.28;;;3.88;;
21315;SDS011;10817;55.820;13.030;2023-05-23T06:34:51;5.00;;;3.25;;
21315;SDS011;10817;55.820;13.030;2023-05-23T06:37:18;7.13;;;3.60;;
21315;SDS011;10817;55.820;13.030;2023-05-23T06:39:45;5.13;;;3.63;;
21315;SDS011;10817;55.820;13.030;2023-05-23T06:42:13;8.57;;;3.42;;
21315;SDS011;10817;55.820;13.030;2023-05-23T06:45:01;10.18;;;3.83;;
21315;SDS011;10817;55.820;13.030;2023-05-23T06:47:30;7.90;;;3.92;;
21315;SDS011;10817;55.820;13.030;2023-05-23T06:49:57;8.85;;;4.20;;
21315;SDS011;10817;55.820;13.030;2023-05-23T06:52:25;7.95;;;3.42;;
21315;SDS011;10817;55.820;13.030;2023-05-23T06:54:52;10.43;;;4.18;;
21315;SDS011;10817;55.820;13.030;2023-05-23T06:57:20;6.13;;;4.15;;
21315;SDS011;10817;55.820;13.030;2023-05-23T06:59:47;5.63;;;3.63;;
21315;SDS011;10817;55.820;13.030;2023-05-23T07:02:16;6.32;;;4.13;;
21315;SDS011;10817;55.820;13.030;2023-05-23T07:04:44;10.48;;;4.00;;
21315;SDS011;10817;55.820;13.030;2023-05-23T07:07:18;8.18;;;4.22;;
21315;SDS011;10817;55.820;13.030;2023-05-23T07:09:45;8.90;;;4.00;;
21315;SDS011;10817;55.820;13.030;2023-05-23T07:12:16;7.95;;;4.50;;
21315;SDS011;10817;55.820;13.030;2023-05-23T07:14:45;10.18;;;4.47;;
21315;SDS011;10817;55.820;13.030;2023-05-23T07:17:15;8.93;;;4.90;;
21315;SDS011;10817;55.820;13.030;2023-05-23T07:19:44;9.68;;;4.65;;
21315;SDS011;10817;55.820;13.030;2023-05-23T07:22:11;10.80;;;4.72;;
21315;SDS011;10817;55.820;13.030;2023-05-23T07:24:40;6.05;;;4.10;;
21315;SDS011;10817;55.820;13.030;2023-05-23T07:27:08;10.80;;;4.22;;
21315;SDS011;10817;55.820;13.030;2023-05-23T07:29:37;7.53;;;3.92;;
21315;SDS011;10817;55.820;13.030;2023-05-23T07:32:06;10.23;;;4.32;;
21315;SDS011;10817;55.820;13.030;2023-05-23T07:34:37;8.25;;;4.40;;
21315;SDS011;10817;55.820;13.030;2023-05-23T07:37:05;10.63;;;4.57;;
21315;SDS011;10817;55.820;13.030;2023-05-23T07:39:40;8.65;;;3.92;;
21315;SDS011;10817;55.820;13.030;2023-05-23T07:42:07;6.07;;;3.60;;
21315;SDS011;10817;55.820;13.030;2023-05-23T07:44:35;8.77;;;3.90;;
21315;SDS011;10817;55.820;13.030;2023-05-23T07:47:03;9.27;;;4.30;;
21315;SDS011;10817;55.820;13.030;2023-05-23T07:49:31;8.68;;;4.03;;
21315;SDS011;10817;55.820;13.030;2023-05-23T07:51:59;5.97;;;3.90;;
21315;SDS011;10817;55.820;13.030;2023-05-23T07:54:27;7.88;;;3.83;;
21315;SDS011;10817;55.820;13.030;2023-05-23T07:56:57;9.52;;;3.92;;
21315;SDS011;10817;55.820;13.030;2023-05-23T07:59:25;7.30;;;3.83;;
21315;SDS011;10817;55.820;13.030;2023-05-23T08:01:54;6.32;;;4.22;;
21315;SDS011;10817;55.820;13.030;2023-05-23T08:04:23;8.00;;;3.88;;
21315;SDS011;10817;55.820;13.030;2023-05-23T08:06:52;7.90;;;3.50;;
21315;SDS011;10817;55.820;13.030;2023-05-23T08:09:24;10.98;;;3.80;;
21315;SDS011;10817;55.820;13.030;2023-05-23T08:11:54;6.20;;;3.63;;
21315;SDS011;10817;55.820;13.030;2023-05-23T08:14:23;4.57;;;3.60;;
21315;SDS011;10817;55.820;13.030;2023-05-23T08:17:09;8.18;;;3.80;;
21315;SDS011;10817;55.820;13.030;2023-05-23T08:19:37;6.70;;;3.75;;
21315;SDS011;10817;55.820;13.030;2023-05-23T08:22:04;9.13;;;4.18;;
21315;SDS011;10817;55.820;13.030;2023-05-23T08:24:33;6.10;;;4.03;;
21315;SDS011;10817;55.820;13.030;2023-05-23T08:27:00;9.10;;;4.60;;
21315;SDS011;10817;55.820;13.030;2023-05-23T08:29:29;6.63;;;3.65;;
21315;SDS011;10817;55.820;13.030;2023-05-23T08:31:56;6.07;;;3.88;;
21315;SDS011;10817;55.820;13.030;2023-05-23T08:34:24;8.45;;;3.90;;
21315;SDS011;10817;55.820;13.030;2023-05-23T08:36:51;8.00;;;4.03;;
21315;SDS011;10817;55.820;13.030;2023-05-23T08:39:20;7.00;;;3.55;;
21315;SDS011;10817;55.820;13.030;2023-05-23T08:41:55;7.07;;;4.00;;
21315;SDS011;10817;55.820;13.030;2023-05-23T08:44:22;9.82;;;3.85;;
21315;SDS011;10817;55.820;13.030;2023-05-23T08:46:55;12.70;;;3.97;;
21315;SDS011;10817;55.820;13.030;2023-05-23T08:49:46;8.43;;;3.72;;
21315;SDS011;10817;55.820;13.030;2023-05-23T08:52:15;6.63;;;4.15;;
21315;SDS011;10817;55.820;13.030;2023-05-23T08:54:47;6.47;;;3.90;;
21315;SDS011;10817;55.820;13.030;2023-05-23T08:57:16;6.10;;;3.92;;
21315;SDS011;10817;55.820;13.030;2023-05-23T08:59:49;6.00;;;4.03;;
21315;SDS011;10817;55.820;13.030;2023-05-23T09:02:18;9.63;;;4.07;;
21315;SDS011;10817;55.820;13.030;2023-05-23T09:04:47;6.35;;;4.28;;
21315;SDS011;10817;55.820;13.030;2023-05-23T09:07:21;8.07;;;4.22;;
21315;SDS011;10817;55.820;13.030;2023-05-23T09:09:50;5.50;;;3.70;;
21315;SDS011;10817;55.820;13.030;2023-05-23T09:12:18;9.90;;;4.03;;
21315;SDS011;10817;55.820;13.030;2023-05-23T09:14:48;8.57;;;4.10;;
21315;SDS011;10817;55.820;13.030;2023-05-23T09:17:17;8.05;;;3.92;;
21315;SDS011;10817;55.820;13.030;2023-05-23T09:19:45;6.03;;;4.03;;
21315;SDS011;10817;55.820;13.030;2023-05-23T09:22:23;12.05;;;4.55;;
21315;SDS011;10817;55.820;13.030;2023-05-23T09:25:01;7.80;;;4.22;;
21315;SDS011;10817;55.820;13.030;2023-05-23T09:27:30;8.05;;;4.35;;
21315;SDS011;10817;55.820;13.030;2023-05-23T09:29:57;6.88;;;4.18;;
21315;SDS011;10817;55.820;13.030;2023-05-23T09:32:31;9.00;;;5.00;;
21315;SDS011;10817;55.820;13.030;2023-05-23T09:34:58;9.57;;;4.43;;
21315;SDS011;10817;55.820;13.030;2023-05-23T09:37:30;7.88;;;4.25;;
21315;SDS011;10817;55.820;13.030;2023-05-23T09:39:58;10.55;;;4.63;;
21315;SDS011;10817;55.820;13.030;2023-05-23T09:42:31;6.85;;;4.15;;
21315;SDS011;10817;55.820;13.030;2023-05-23T09:44:59;8.20;;;4.15;;
21315;SDS011;10817;55.820;13.030;2023-05-23T09:47:28;10.63;;;4.97;;
21315;SDS011;10817;55.820;13.030;2023-05-23T09:49:55;7.85;;;4.55;;
21315;SDS011;10817;55.820;13.030;2023-05-23T09:52:23;9.63;;;4.60;;
21315;SDS011;10817;55.820;13.030;2023-05-23T09:54:50;9.07;;;4.50;;
21315;SDS011;10817;55.820;13.030;2023-05-23T09:57:17;13.85;;;4.60;;
21315;SDS011;10817;55.820;13.030;2023-05-23T09:59:50;6.82;;;4.18;;
21315;SDS011;10817;55.820;13.030;2023-05-23T10:02:22;8.40;;;5.05;;
21315;SDS011;10817;55.820;13.030;2023-05-23T10:04:56;6.55;;;4.45;;
21315;SDS011;10817;55.820;13.030;2023-05-23T10:07:23;8.10;;;4.10;;
21315;SDS011;10817;55.820;13.030;2023-05-23T10:09:52;12.13;;;5.00;;
21315;SDS011;10817;55.820;13.030;2023-05-23T10:15:04;7.72;;;4.63;;
21315;SDS011;10817;55.820;13.030;2023-05-23T10:17:32;8.93;;;5.30;;
21315;SDS011;10817;55.820;13.030;2023-05-23T10:20:02;8.60;;;5.15;;
21315;SDS011;10817;55.820;13.030;2023-05-23T10:22:32;7.13;;;4.72;;
21315;SDS011;10817;55.820;13.030;2023-05-23T10:25:00;11.75;;;5.75;;
21315;SDS011;10817;55.820;13.030;2023-05-23T10:27:28;8.73;;;5.10;;
21315;SDS011;10817;55.820;13.030;2023-05-23T10:29:55;6.65;;;4.75;;
21315;SDS011;10817;55.820;13.030;2023-05-23T10:32:24;13.85;;;5.03;;
21315;SDS011;10817;55.820;13.030;2023-05-23T10:34:53;9.35;;;5.65;;
21315;SDS011;10817;55.820;13.030;2023-05-23T10:37:22;11.77;;;6.35;;
21315;SDS011;10817;55.820;13.030;2023-05-23T10:39:53;10.60;;;6.03;;
21315;SDS011;10817;55.820;13.030;2023-05-23T10:42:26;13.10;;;6.18;;
21315;SDS011;10817;55.820;13.030;2023-05-23T10:47:38;12.43;;;6.05;;
21315;SDS011;10817;55.820;13.030;2023-05-23T10:50:06;12.95;;;5.57;;
21315;SDS011;10817;55.820;13.030;2023-05-23T10:52:37;9.10;;;5.30;;
21315;SDS011;10817;55.820;13.030;2023-05-23T10:55:11;12.90;;;5.40;;
21315;SDS011;10817;55.820;13.030;2023-05-23T10:57:39;11.68;;;4.90;;
21315;SDS011;10817;55.820;13.030;2023-05-23T11:00:11;12.68;;;5.72;;
21315;SDS011;10817;55.820;13.030;2023-05-23T11:02:40;10.50;;;5.20;;
21315;SDS011;10817;55.820;13.030;2023-05-23T11:05:19;9.05;;;4.78;;
21315;SDS011;10817;55.820;13.030;2023-05-23T11:10:29;6.25;;;4.22;;
21315;SDS011;10817;55.820;13.030;2023-05-23T11:13:04;7.35;;;4.22;;
21315;SDS011;10817;55.820;13.030;2023-05-23T11:15:40;9.77;;;5.10;;
21315;SDS011;10817;55.820;13.030;2023-05-23T11:18:10;8.25;;;4.30;;
21315;SDS011;10817;55.820;13.030;2023-05-23T11:20:45;8.05;;;4.10;;
21315;SDS011;10817;55.820;13.030;2023-05-23T11:23:13;12.52;;;4.93;;
21315;SDS011;10817;55.820;13.030;2023-05-23T11:25:41;10.80;;;4.57;;
21315;SDS011;10817;55.820;13.030;2023-05-23T11:28:08;8.43;;;4.20;;
21315;SDS011;10817;55.820;13.030;2023-05-23T11:30:36;6.50;;;4.30;;
21315;SDS011;10817;55.820;13.030;2023-05-23T11:33:06;7.55;;;4.78;;
21315;SDS011;10817;55.820;13.030;2023-05-23T11:35:38;15.73;;;4.22;;
21315;SDS011;10817;55.820;13.030;2023-05-23T11:38:06;8.05;;;4.60;;
21315;SDS011;10817;55.820;13.030;2023-05-23T11:40:33;8.15;;;4.90;;
21315;SDS011;10817;55.820;13.030;2023-05-23T11:43:02;6.80;;;4.18;;
21315;SDS011;10817;55.820;13.030;2023-05-23T11:45:30;9.13;;;4.00;;
21315;SDS011;10817;55.820;13.030;2023-05-23T11:47:57;9.88;;;4.10;;
21315;SDS011;10817;55.820;13.030;2023-05-23T11:50:24;7.65;;;4.38;;
21315;SDS011;10817;55.820;13.030;2023-05-23T11:52:54;11.65;;;4.07;;
21315;SDS011;10817;55.820;13.030;2023-05-23T11:55:21;11.25;;;4.63;;
21315;SDS011;10817;55.820;13.030;2023-05-23T11:57:49;9.32;;;4.68;;
21315;SDS011;10817;55.820;13.030;2023-05-23T12:00:17;7.47;;;4.35;;
21315;SDS011;10817;55.820;13.030;2023-05-23T12:02:44;6.10;;;4.32;;
21315;SDS011;10817;55.820;13.030;2023-05-23T12:05:13;8.23;;;4.28;;
21315;SDS011;10817;55.820;13.030;2023-05-23T12:07:40;8.70;;;4.55;;
21315;SDS011;10817;55.820;13.030;2023-05-23T12:10:09;8.38;;;4.60;;
21315;SDS011;10817;55.820;13.030;2023-05-23T12:12:37;10.07;;;4.55;;
21315;SDS011;10817;55.820;13.030;2023-05-23T12:15:04;8.32;;;4.40;;
21315;SDS011;10817;55.820;13.030;2023-05-23T12:17:31;7.80;;;4.30;;
21315;SDS011;10817;55.820;13.030;2023-05-23T12:19:59;10.48;;;4.28;;
21315;SDS011;10817;55.820;13.030;2023-05-23T12:22:26;11.20;;;4.53;;
21315;SDS011;10817;55.820;13.030;2023-05-23T12:24:54;7.82;;;4.82;;
21315;SDS011;10817;55.820;13.030;2023-05-23T12:27:27;11.15;;;4.50;;
21315;SDS011;10817;55.820;13.030;2023-05-23T12:30:05;11.52;;;4.38;;
21315;SDS011;10817;55.820;13.030;2023-05-23T12:32:33;7.35;;;4.18;;
21315;SDS011;10817;55.820;13.030;2023-05-23T12:35:00;8.00;;;4.18;;
21315;SDS011;10817;55.820;13.030;2023-05-23T12:37:27;9.68;;;4.00;;
21315;SDS011;10817;55.820;13.030;2023-05-23T12:39:55;11.75;;;4.30;;
21315;SDS011;10817;55.820;13.030;2023-05-23T12:42:22;9.13;;;4.80;;
21315;SDS011;10817;55.820;13.030;2023-05-23T12:44:52;11.60;;;4.80;;
21315;SDS011;10817;55.820;13.030;2023-05-23T12:47:19;8.38;;;4.35;;
21315;SDS011;10817;55.820;13.030;2023-05-23T12:49:46;9.10;;;4.40;;
21315;SDS011;10817;55.820;13.030;2023-05-23T12:52:14;7.57;;;3.88;;
21315;SDS011;10817;55.820;13.030;2023-05-23T12:54:41;13.73;;;4.45;;
21315;SDS011;10817;55.820;13.030;2023-05-23T12:57:08;5.78;;;4.47;;
21315;SDS011;10817;55.820;13.030;2023-05-23T12:59:35;16.23;;;4.80;;
21315;SDS011;10817;55.820;13.030;2023-05-23T13:02:04;7.85;;;4.88;;
21315;SDS011;10817;55.820;13.030;2023-05-23T13:04:31;9.95;;;5.25;;
21315;SDS011;10817;55.820;13.030;2023-05-23T13:06:58;6.80;;;4.78;;
21315;SDS011;10817;55.820;13.030;2023-05-23T13:09:26;9.82;;;4.88;;
21315;SDS011;10817;55.820;13.030;2023-05-23T13:11:53;8.93;;;4.82;;
21315;SDS011;10817;55.820;13.030;2023-05-23T13:14:20;10.55;;;5.85;;
21315;SDS011;10817;55.820;13.030;2023-05-23T13:16:47;12.10;;;4.80;;
21315;SDS011;10817;55.820;13.030;2023-05-23T13:19:16;7.80;;;5.53;;
21315;SDS011;10817;55.820;13.030;2023-05-23T13:21:43;8.82;;;4.25;;
21315;SDS011;10817;55.820;13.030;2023-05-23T13:24:11;9.50;;;4.68;;
21315;SDS011;10817;55.820;13.030;2023-05-23T13:26:38;9.40;;;5.20;;
21315;SDS011;10817;55.820;13.030;2023-05-23T13:29:05;7.70;;;5.55;;
21315;SDS011;10817;55.820;13.030;2023-05-23T13:31:32;7.85;;;5.50;;
21315;SDS011;10817;55.820;13.030;2023-05-23T13:33:59;11.63;;;5.35;;
21315;SDS011;10817;55.820;13.030;2023-05-23T13:36:28;9.23;;;5.60;;
21315;SDS011;10817;55.820;13.030;2023-05-23T13:38:55;9.52;;;5.25;;
21315;SDS011;10817;55.820;13.030;2023-05-23T13:41:22;9.13;;;5.63;;
21315;SDS011;10817;55.820;13.030;2023-05-23T13:43:50;8.00;;;5.88;;
21315;SDS011;10817;55.820;13.030;2023-05-23T13:46:17;11.40;;;6.10;;
21315;SDS011;10817;55.820;13.030;2023-05-23T13:48:44;11.02;;;6.15;;
21315;SDS011;10817;55.820;13.030;2023-05-23T13:51:11;10.80;;;6.47;;
21315;SDS011;10817;55.820;13.030;2023-05-23T13:53:40;12.20;;;6.55;;
21315;SDS011;10817;55.820;13.030;2023-05-23T13:56:07;12.77;;;6.80;;
21315;SDS011;10817;55.820;13.030;2023-05-23T13:58:34;11.43;;;6.50;;
21315;SDS011;10817;55.820;13.030;2023-05-23T14:01:02;14.07;;;6.80;;
21315;SDS011;10817;55.820;13.030;2023-05-23T14:03:29;11.18;;;6.20;;
21315;SDS011;10817;55.820;13.030;2023-05-23T14:05:56;10.65;;;6.63;;
21315;SDS011;10817;55.820;13.030;2023-05-23T14:08:23;10.32;;;6.90;;
21315;SDS011;10817;55.820;13.030;2023-05-23T14:10:52;15.13;;;7.35;;
21315;SDS011;10817;55.820;13.030;2023-05-23T14:13:19;10.90;;;7.20;;
21315;SDS011;10817;55.820;13.030;2023-05-23T14:15:47;10.63;;;7.90;;
21315;SDS011;10817;55.820;13.030;2023-05-23T14:18:14;12.25;;;8.20;;
21315;SDS011;10817;55.820;13.030;2023-05-23T14:20:42;13.10;;;8.10;;
21315;SDS011;10817;55.820;13.030;2023-05-23T14:23:09;12.95;;;8.48;;
21315;SDS011;10817;55.820;13.030;2023-05-23T14:25:36;13.88;;;8.68;;
21315;SDS011;10817;55.820;13.030;2023-05-23T14:28:05;16.38;;;9.50;;
21315;SDS011;10817;55.820;13.030;2023-05-23T14:30:32;14.13;;;9.05;;
21315;SDS011;10817;55.820;13.030;2023-05-23T14:33:00;13.77;;;9.30;;
21315;SDS011;10817;55.820;13.030;2023-05-23T14:35:27;15.68;;;9.68;;
21315;SDS011;10817;55.820;13.030;2023-05-23T14:37:57;18.90;;;10.25;;
21315;SDS011;10817;55.820;13.030;2023-05-23T14:40:30;18.15;;;10.68;;
21315;SDS011;10817;55.820;13.030;2023-05-23T14:42:58;15.95;;;9.68;;
21315;SDS011;10817;55.820;13.030;2023-05-23T14:45:26;20.58;;;10.23;;
21315;SDS011;10817;55.820;13.030;2023-05-23T14:47:53;15.75;;;9.98;;
21315;SDS011;10817;55.820;13.030;2023-05-23T14:50:21;14.23;;;9.30;;
21315;SDS011;10817;55.820;13.030;2023-05-23T14:52:48;12.40;;;9.15;;